<?xml version="1.0" encoding="UTF-8" ?>
<gpx version="1.1" xmlns:xsi="http://www.w3.org/2001/XMLSchema-instance" 
    xmlns="http://www.topografix.com/GPX/1/1" 
    xsi:schemaLocation="http://www.topografix.com/GPX/1/1 http://www.topografix.com/GPX/1/1/gpx.xsd" 
    creator="Openrunner - https://www.openrunner.com" >	<trk>
						<name>14966655-Sur le Chemin du Couzon</name>
						<trkseg>
					<trkpt lat="45.595640" lon="4.465450">
						<ele>680</ele>
						<time>2022-06-15T09:43:37Z</time>
					</trkpt>
					<trkpt lat="45.595740" lon="4.465490">
						<ele>680</ele>
						<time>2022-06-15T09:43:45Z</time>
					</trkpt>
					<trkpt lat="45.596320" lon="4.465220">
						<ele>669</ele>
						<time>2022-06-15T09:44:34Z</time>
					</trkpt>
					<trkpt lat="45.596710" lon="4.464940">
						<ele>664</ele>
						<time>2022-06-15T09:45:09Z</time>
					</trkpt>
					<trkpt lat="45.597040" lon="4.464870">
						<ele>657</ele>
						<time>2022-06-15T09:45:36Z</time>
					</trkpt>
					<trkpt lat="45.597270" lon="4.464840">
						<ele>653</ele>
						<time>2022-06-15T09:45:54Z</time>
					</trkpt>
					<trkpt lat="45.597420" lon="4.464610">
						<ele>650</ele>
						<time>2022-06-15T09:46:12Z</time>
					</trkpt>
					<trkpt lat="45.597500" lon="4.464260">
						<ele>650</ele>
						<time>2022-06-15T09:46:33Z</time>
					</trkpt>
					<trkpt lat="45.597640" lon="4.463900">
						<ele>645</ele>
						<time>2022-06-15T09:46:56Z</time>
					</trkpt>
					<trkpt lat="45.597300" lon="4.463980">
						<ele>648</ele>
						<time>2022-06-15T09:47:23Z</time>
					</trkpt>
					<trkpt lat="45.597200" lon="4.464060">
						<ele>648</ele>
						<time>2022-06-15T09:47:32Z</time>
					</trkpt>
					<trkpt lat="45.596820" lon="4.464210">
						<ele>650</ele>
						<time>2022-06-15T09:48:04Z</time>
					</trkpt>
					<trkpt lat="45.596450" lon="4.464240">
						<ele>654</ele>
						<time>2022-06-15T09:48:34Z</time>
					</trkpt>
					<trkpt lat="45.596130" lon="4.464230">
						<ele>659</ele>
						<time>2022-06-15T09:48:59Z</time>
					</trkpt>
					<trkpt lat="45.596060" lon="4.464190">
						<ele>659</ele>
						<time>2022-06-15T09:49:05Z</time>
					</trkpt>
					<trkpt lat="45.596030" lon="4.464080">
						<ele>660</ele>
						<time>2022-06-15T09:49:12Z</time>
					</trkpt>
					<trkpt lat="45.596040" lon="4.463930">
						<ele>660</ele>
						<time>2022-06-15T09:49:20Z</time>
					</trkpt>
					<trkpt lat="45.596100" lon="4.463700">
						<ele>658</ele>
						<time>2022-06-15T09:49:34Z</time>
					</trkpt>
					<trkpt lat="45.596290" lon="4.463180">
						<ele>651</ele>
						<time>2022-06-15T09:50:07Z</time>
					</trkpt>
					<trkpt lat="45.596390" lon="4.462990">
						<ele>647</ele>
						<time>2022-06-15T09:50:20Z</time>
					</trkpt>
					<trkpt lat="45.596440" lon="4.462730">
						<ele>643</ele>
						<time>2022-06-15T09:50:35Z</time>
					</trkpt>
					<trkpt lat="45.596580" lon="4.461030">
						<ele>631</ele>
						<time>2022-06-15T09:52:11Z</time>
					</trkpt>
					<trkpt lat="45.596570" lon="4.460770">
						<ele>630</ele>
						<time>2022-06-15T09:52:26Z</time>
					</trkpt>
					<trkpt lat="45.596510" lon="4.460610">
						<ele>630</ele>
						<time>2022-06-15T09:52:36Z</time>
					</trkpt>
					<trkpt lat="45.596120" lon="4.460150">
						<ele>641</ele>
						<time>2022-06-15T09:53:17Z</time>
					</trkpt>
					<trkpt lat="45.596040" lon="4.460000">
						<ele>643</ele>
						<time>2022-06-15T09:53:27Z</time>
					</trkpt>
					<trkpt lat="45.595580" lon="4.459380">
						<ele>638</ele>
						<time>2022-06-15T09:54:18Z</time>
					</trkpt>
					<trkpt lat="45.595110" lon="4.458610">
						<ele>629</ele>
						<time>2022-06-15T09:55:15Z</time>
					</trkpt>
					<trkpt lat="45.594790" lon="4.458480">
						<ele>630</ele>
						<time>2022-06-15T09:55:42Z</time>
					</trkpt>
					<trkpt lat="45.594320" lon="4.458480">
						<ele>633</ele>
						<time>2022-06-15T09:56:19Z</time>
					</trkpt>
					<trkpt lat="45.593950" lon="4.458560">
						<ele>641</ele>
						<time>2022-06-15T09:56:49Z</time>
					</trkpt>
					<trkpt lat="45.593870" lon="4.458010">
						<ele>632</ele>
						<time>2022-06-15T09:57:21Z</time>
					</trkpt>
					<trkpt lat="45.593610" lon="4.457550">
						<ele>631</ele>
						<time>2022-06-15T09:57:54Z</time>
					</trkpt>
					<trkpt lat="45.593600" lon="4.457350">
						<ele>627</ele>
						<time>2022-06-15T09:58:05Z</time>
					</trkpt>
					<trkpt lat="45.593660" lon="4.457170">
						<ele>622</ele>
						<time>2022-06-15T09:58:16Z</time>
					</trkpt>
					<trkpt lat="45.593700" lon="4.456980">
						<ele>618</ele>
						<time>2022-06-15T09:58:27Z</time>
					</trkpt>
					<trkpt lat="45.593650" lon="4.456020">
						<ele>607</ele>
						<time>2022-06-15T09:59:21Z</time>
					</trkpt>
					<trkpt lat="45.593580" lon="4.455910">
						<ele>606</ele>
						<time>2022-06-15T09:59:30Z</time>
					</trkpt>
					<trkpt lat="45.593450" lon="4.455880">
						<ele>606</ele>
						<time>2022-06-15T09:59:40Z</time>
					</trkpt>
					<trkpt lat="45.592670" lon="4.455920">
						<ele>608</ele>
						<time>2022-06-15T10:00:43Z</time>
					</trkpt>
					<trkpt lat="45.592450" lon="4.455890">
						<ele>607</ele>
						<time>2022-06-15T10:01:00Z</time>
					</trkpt>
					<trkpt lat="45.592260" lon="4.455680">
						<ele>607</ele>
						<time>2022-06-15T10:01:20Z</time>
					</trkpt>
					<trkpt lat="45.592050" lon="4.455710">
						<ele>609</ele>
						<time>2022-06-15T10:01:36Z</time>
					</trkpt>
					<trkpt lat="45.591840" lon="4.455700">
						<ele>611</ele>
						<time>2022-06-15T10:01:53Z</time>
					</trkpt>
					<trkpt lat="45.591410" lon="4.455260">
						<ele>614</ele>
						<time>2022-06-15T10:02:36Z</time>
					</trkpt>
					<trkpt lat="45.591230" lon="4.455160">
						<ele>617</ele>
						<time>2022-06-15T10:02:51Z</time>
					</trkpt>
					<trkpt lat="45.591100" lon="4.455010">
						<ele>617</ele>
						<time>2022-06-15T10:03:04Z</time>
					</trkpt>
					<trkpt lat="45.590820" lon="4.454430">
						<ele>613</ele>
						<time>2022-06-15T10:03:44Z</time>
					</trkpt>
					<trkpt lat="45.590580" lon="4.454090">
						<ele>614</ele>
						<time>2022-06-15T10:04:11Z</time>
					</trkpt>
					<trkpt lat="45.590470" lon="4.453880">
						<ele>615</ele>
						<time>2022-06-15T10:04:26Z</time>
					</trkpt>
					<trkpt lat="45.590070" lon="4.453410">
						<ele>613</ele>
						<time>2022-06-15T10:05:07Z</time>
					</trkpt>
					<trkpt lat="45.589590" lon="4.453040">
						<ele>617</ele>
						<time>2022-06-15T10:05:51Z</time>
					</trkpt>
					<trkpt lat="45.588660" lon="4.452540">
						<ele>621</ele>
						<time>2022-06-15T10:07:10Z</time>
					</trkpt>
					<trkpt lat="45.588210" lon="4.452390">
						<ele>623</ele>
						<time>2022-06-15T10:07:47Z</time>
					</trkpt>
					<trkpt lat="45.587770" lon="4.452270">
						<ele>622</ele>
						<time>2022-06-15T10:08:23Z</time>
					</trkpt>
					<trkpt lat="45.587390" lon="4.452140">
						<ele>622</ele>
						<time>2022-06-15T10:08:55Z</time>
					</trkpt>
					<trkpt lat="45.586980" lon="4.451910">
						<ele>622</ele>
						<time>2022-06-15T10:09:30Z</time>
					</trkpt>
					<trkpt lat="45.586640" lon="4.451790">
						<ele>623</ele>
						<time>2022-06-15T10:09:58Z</time>
					</trkpt>
					<trkpt lat="45.586510" lon="4.451850">
						<ele>623</ele>
						<time>2022-06-15T10:10:09Z</time>
					</trkpt>
					<trkpt lat="45.586480" lon="4.451860">
						<ele>623</ele>
						<time>2022-06-15T10:10:11Z</time>
					</trkpt>
					<trkpt lat="45.586200" lon="4.452330">
						<ele>628</ele>
						<time>2022-06-15T10:10:46Z</time>
					</trkpt>
					<trkpt lat="45.585870" lon="4.452670">
						<ele>631</ele>
						<time>2022-06-15T10:11:18Z</time>
					</trkpt>
					<trkpt lat="45.585560" lon="4.452720">
						<ele>633</ele>
						<time>2022-06-15T10:11:43Z</time>
					</trkpt>
					<trkpt lat="45.585200" lon="4.452600">
						<ele>632</ele>
						<time>2022-06-15T10:12:13Z</time>
					</trkpt>
					<trkpt lat="45.584910" lon="4.452450">
						<ele>630</ele>
						<time>2022-06-15T10:12:38Z</time>
					</trkpt>
					<trkpt lat="45.584170" lon="4.452300">
						<ele>634</ele>
						<time>2022-06-15T10:13:38Z</time>
					</trkpt>
					<trkpt lat="45.583830" lon="4.452370">
						<ele>634</ele>
						<time>2022-06-15T10:14:05Z</time>
					</trkpt>
					<trkpt lat="45.583570" lon="4.452590">
						<ele>637</ele>
						<time>2022-06-15T10:14:29Z</time>
					</trkpt>
					<trkpt lat="45.583060" lon="4.453100">
						<ele>644</ele>
						<time>2022-06-15T10:15:19Z</time>
					</trkpt>
					<trkpt lat="45.582880" lon="4.453400">
						<ele>645</ele>
						<time>2022-06-15T10:15:41Z</time>
					</trkpt>
					<trkpt lat="45.582710" lon="4.453850">
						<ele>647</ele>
						<time>2022-06-15T10:16:10Z</time>
					</trkpt>
					<trkpt lat="45.582260" lon="4.454690">
						<ele>651</ele>
						<time>2022-06-15T10:17:09Z</time>
					</trkpt>
					<trkpt lat="45.581920" lon="4.455030">
						<ele>647</ele>
						<time>2022-06-15T10:17:42Z</time>
					</trkpt>
					<trkpt lat="45.581830" lon="4.455400">
						<ele>650</ele>
						<time>2022-06-15T10:18:04Z</time>
					</trkpt>
					<trkpt lat="45.581670" lon="4.456430">
						<ele>663</ele>
						<time>2022-06-15T10:19:03Z</time>
					</trkpt>
					<trkpt lat="45.581640" lon="4.456870">
						<ele>671</ele>
						<time>2022-06-15T10:19:28Z</time>
					</trkpt>
					<trkpt lat="45.581550" lon="4.457370">
						<ele>676</ele>
						<time>2022-06-15T10:19:57Z</time>
					</trkpt>
					<trkpt lat="45.581380" lon="4.457780">
						<ele>680</ele>
						<time>2022-06-15T10:20:24Z</time>
					</trkpt>
					<trkpt lat="45.581250" lon="4.458230">
						<ele>686</ele>
						<time>2022-06-15T10:20:51Z</time>
					</trkpt>
					<trkpt lat="45.581060" lon="4.458590">
						<ele>687</ele>
						<time>2022-06-15T10:21:16Z</time>
					</trkpt>
					<trkpt lat="45.580430" lon="4.458980">
						<ele>682</ele>
						<time>2022-06-15T10:22:11Z</time>
					</trkpt>
					<trkpt lat="45.580330" lon="4.459330">
						<ele>686</ele>
						<time>2022-06-15T10:22:33Z</time>
					</trkpt>
					<trkpt lat="45.580390" lon="4.459730">
						<ele>691</ele>
						<time>2022-06-15T10:22:55Z</time>
					</trkpt>
					<trkpt lat="45.580520" lon="4.460050">
						<ele>696</ele>
						<time>2022-06-15T10:23:16Z</time>
					</trkpt>
					<trkpt lat="45.580610" lon="4.460200">
						<ele>698</ele>
						<time>2022-06-15T10:23:27Z</time>
					</trkpt>
					<trkpt lat="45.581010" lon="4.460330">
						<ele>704</ele>
						<time>2022-06-15T10:24:00Z</time>
					</trkpt>
					<trkpt lat="45.581160" lon="4.460530">
						<ele>707</ele>
						<time>2022-06-15T10:24:17Z</time>
					</trkpt>
					<trkpt lat="45.581170" lon="4.461250">
						<ele>710</ele>
						<time>2022-06-15T10:24:57Z</time>
					</trkpt>
					<trkpt lat="45.581080" lon="4.461650">
						<ele>711</ele>
						<time>2022-06-15T10:25:20Z</time>
					</trkpt>
					<trkpt lat="45.580660" lon="4.461890">
						<ele>707</ele>
						<time>2022-06-15T10:25:57Z</time>
					</trkpt>
					<trkpt lat="45.580000" lon="4.462300">
						<ele>707</ele>
						<time>2022-06-15T10:26:54Z</time>
					</trkpt>
					<trkpt lat="45.579610" lon="4.462450">
						<ele>705</ele>
						<time>2022-06-15T10:27:27Z</time>
					</trkpt>
					<trkpt lat="45.578820" lon="4.463240">
						<ele>701</ele>
						<time>2022-06-15T10:28:44Z</time>
					</trkpt>
					<trkpt lat="45.579030" lon="4.463760">
						<ele>707</ele>
						<time>2022-06-15T10:29:18Z</time>
					</trkpt>
					<trkpt lat="45.579110" lon="4.463780">
						<ele>709</ele>
						<time>2022-06-15T10:29:24Z</time>
					</trkpt>
					<trkpt lat="45.579130" lon="4.463710">
						<ele>709</ele>
						<time>2022-06-15T10:29:28Z</time>
					</trkpt>
					<trkpt lat="45.579330" lon="4.463390">
						<ele>713</ele>
						<time>2022-06-15T10:29:52Z</time>
					</trkpt>
					<trkpt lat="45.579420" lon="4.463330">
						<ele>714</ele>
						<time>2022-06-15T10:30:00Z</time>
					</trkpt>
					<trkpt lat="45.579740" lon="4.463410">
						<ele>720</ele>
						<time>2022-06-15T10:30:26Z</time>
					</trkpt>
					<trkpt lat="45.579840" lon="4.463410">
						<ele>722</ele>
						<time>2022-06-15T10:30:34Z</time>
					</trkpt>
					<trkpt lat="45.580010" lon="4.463340">
						<ele>724</ele>
						<time>2022-06-15T10:30:48Z</time>
					</trkpt>
					<trkpt lat="45.580430" lon="4.463330">
						<ele>729</ele>
						<time>2022-06-15T10:31:22Z</time>
					</trkpt>
					<trkpt lat="45.581460" lon="4.463670">
						<ele>741</ele>
						<time>2022-06-15T10:32:47Z</time>
					</trkpt>
					<trkpt lat="45.581800" lon="4.463880">
						<ele>745</ele>
						<time>2022-06-15T10:33:16Z</time>
					</trkpt>
					<trkpt lat="45.582220" lon="4.464200">
						<ele>752</ele>
						<time>2022-06-15T10:33:54Z</time>
					</trkpt>
					<trkpt lat="45.582360" lon="4.464250">
						<ele>754</ele>
						<time>2022-06-15T10:34:06Z</time>
					</trkpt>
					<trkpt lat="45.582490" lon="4.464210">
						<ele>755</ele>
						<time>2022-06-15T10:34:17Z</time>
					</trkpt>
					<trkpt lat="45.582490" lon="4.464260">
						<ele>755</ele>
						<time>2022-06-15T10:34:19Z</time>
					</trkpt>
					<trkpt lat="45.582490" lon="4.464210">
						<ele>755</ele>
						<time>2022-06-15T10:34:22Z</time>
					</trkpt>
					<trkpt lat="45.582760" lon="4.464170">
						<ele>758</ele>
						<time>2022-06-15T10:34:44Z</time>
					</trkpt>
					<trkpt lat="45.583100" lon="4.464220">
						<ele>761</ele>
						<time>2022-06-15T10:35:11Z</time>
					</trkpt>
					<trkpt lat="45.584280" lon="4.464620">
						<ele>770</ele>
						<time>2022-06-15T10:36:48Z</time>
					</trkpt>
					<trkpt lat="45.584850" lon="4.464870">
						<ele>771</ele>
						<time>2022-06-15T10:37:36Z</time>
					</trkpt>
					<trkpt lat="45.585030" lon="4.465070">
						<ele>772</ele>
						<time>2022-06-15T10:37:54Z</time>
					</trkpt>
					<trkpt lat="45.585220" lon="4.465540">
						<ele>774</ele>
						<time>2022-06-15T10:38:25Z</time>
					</trkpt>
					<trkpt lat="45.585390" lon="4.465870">
						<ele>776</ele>
						<time>2022-06-15T10:38:48Z</time>
					</trkpt>
					<trkpt lat="45.586030" lon="4.466210">
						<ele>778</ele>
						<time>2022-06-15T10:39:43Z</time>
					</trkpt>
					<trkpt lat="45.586030" lon="4.466920">
						<ele>780</ele>
						<time>2022-06-15T10:40:22Z</time>
					</trkpt>
					<trkpt lat="45.585980" lon="4.467170">
						<ele>780</ele>
						<time>2022-06-15T10:40:37Z</time>
					</trkpt>
					<trkpt lat="45.585860" lon="4.467390">
						<ele>780</ele>
						<time>2022-06-15T10:40:53Z</time>
					</trkpt>
					<trkpt lat="45.585690" lon="4.467580">
						<ele>780</ele>
						<time>2022-06-15T10:41:10Z</time>
					</trkpt>
					<trkpt lat="45.585670" lon="4.467600">
						<ele>780</ele>
						<time>2022-06-15T10:41:12Z</time>
					</trkpt>
					<trkpt lat="45.585730" lon="4.467680">
						<ele>780</ele>
						<time>2022-06-15T10:41:18Z</time>
					</trkpt>
					<trkpt lat="45.585730" lon="4.467720">
						<ele>780</ele>
						<time>2022-06-15T10:41:21Z</time>
					</trkpt>
					<trkpt lat="45.585760" lon="4.467710">
						<ele>780</ele>
						<time>2022-06-15T10:41:23Z</time>
					</trkpt>
					<trkpt lat="45.586180" lon="4.467900">
						<ele>778</ele>
						<time>2022-06-15T10:41:58Z</time>
					</trkpt>
					<trkpt lat="45.586600" lon="4.467890">
						<ele>778</ele>
						<time>2022-06-15T10:42:32Z</time>
					</trkpt>
					<trkpt lat="45.587550" lon="4.467580">
						<ele>775</ele>
						<time>2022-06-15T10:43:50Z</time>
					</trkpt>
					<trkpt lat="45.587590" lon="4.467560">
						<ele>775</ele>
						<time>2022-06-15T10:43:53Z</time>
					</trkpt>
					<trkpt lat="45.587920" lon="4.467660">
						<ele>771</ele>
						<time>2022-06-15T10:44:20Z</time>
					</trkpt>
					<trkpt lat="45.588410" lon="4.467870">
						<ele>765</ele>
						<time>2022-06-15T10:45:01Z</time>
					</trkpt>
					<trkpt lat="45.588740" lon="4.468040">
						<ele>764</ele>
						<time>2022-06-15T10:45:29Z</time>
					</trkpt>
					<trkpt lat="45.589170" lon="4.468370">
						<ele>763</ele>
						<time>2022-06-15T10:46:08Z</time>
					</trkpt>
					<trkpt lat="45.590460" lon="4.468460">
						<ele>756</ele>
						<time>2022-06-15T10:47:52Z</time>
					</trkpt>
					<trkpt lat="45.590910" lon="4.469140">
						<ele>758</ele>
						<time>2022-06-15T10:48:44Z</time>
					</trkpt>
					<trkpt lat="45.591310" lon="4.469460">
						<ele>753</ele>
						<time>2022-06-15T10:49:21Z</time>
					</trkpt>
					<trkpt lat="45.591480" lon="4.469860">
						<ele>751</ele>
						<time>2022-06-15T10:49:47Z</time>
					</trkpt>
					<trkpt lat="45.591550" lon="4.470090">
						<ele>749</ele>
						<time>2022-06-15T10:50:01Z</time>
					</trkpt>
					<trkpt lat="45.591690" lon="4.470340">
						<ele>747</ele>
						<time>2022-06-15T10:50:19Z</time>
					</trkpt>
					<trkpt lat="45.592090" lon="4.470960">
						<ele>740</ele>
						<time>2022-06-15T10:51:07Z</time>
					</trkpt>
					<trkpt lat="45.592510" lon="4.471120">
						<ele>736</ele>
						<time>2022-06-15T10:51:41Z</time>
					</trkpt>
					<trkpt lat="45.592550" lon="4.471130">
						<ele>736</ele>
						<time>2022-06-15T10:51:45Z</time>
					</trkpt>
					<trkpt lat="45.592890" lon="4.471230">
						<ele>735</ele>
						<time>2022-06-15T10:52:12Z</time>
					</trkpt>
					<trkpt lat="45.593250" lon="4.471220">
						<ele>735</ele>
						<time>2022-06-15T10:52:41Z</time>
					</trkpt>
					<trkpt lat="45.593700" lon="4.471090">
						<ele>730</ele>
						<time>2022-06-15T10:53:18Z</time>
					</trkpt>
					<trkpt lat="45.594780" lon="4.471250">
						<ele>713</ele>
						<time>2022-06-15T10:54:45Z</time>
					</trkpt>
					<trkpt lat="45.595320" lon="4.471460">
						<ele>702</ele>
						<time>2022-06-15T10:55:30Z</time>
					</trkpt>
					<trkpt lat="45.595620" lon="4.471380">
						<ele>697</ele>
						<time>2022-06-15T10:55:54Z</time>
					</trkpt>
					<trkpt lat="45.595920" lon="4.471190">
						<ele>692</ele>
						<time>2022-06-15T10:56:20Z</time>
					</trkpt>
					<trkpt lat="45.596340" lon="4.470880">
						<ele>685</ele>
						<time>2022-06-15T10:56:58Z</time>
					</trkpt>
					<trkpt lat="45.596390" lon="4.470820">
						<ele>684</ele>
						<time>2022-06-15T10:57:03Z</time>
					</trkpt>
					<trkpt lat="45.596440" lon="4.470690">
						<ele>683</ele>
						<time>2022-06-15T10:57:12Z</time>
					</trkpt>
					<trkpt lat="45.596460" lon="4.470630">
						<ele>682</ele>
						<time>2022-06-15T10:57:16Z</time>
					</trkpt>
					<trkpt lat="45.596340" lon="4.470220">
						<ele>683</ele>
						<time>2022-06-15T10:57:40Z</time>
					</trkpt>
					<trkpt lat="45.596080" lon="4.469700">
						<ele>686</ele>
						<time>2022-06-15T10:58:16Z</time>
					</trkpt>
					<trkpt lat="45.595920" lon="4.469270">
						<ele>688</ele>
						<time>2022-06-15T10:58:43Z</time>
					</trkpt>
					<trkpt lat="45.595920" lon="4.469220">
						<ele>687</ele>
						<time>2022-06-15T10:58:46Z</time>
					</trkpt>
					<trkpt lat="45.595830" lon="4.468220">
						<ele>689</ele>
						<time>2022-06-15T10:59:43Z</time>
					</trkpt>
					<trkpt lat="45.595790" lon="4.467320">
						<ele>689</ele>
						<time>2022-06-15T11:00:33Z</time>
					</trkpt>
					<trkpt lat="45.595740" lon="4.466750">
						<ele>688</ele>
						<time>2022-06-15T11:01:05Z</time>
					</trkpt>
					<trkpt lat="45.595700" lon="4.465910">
						<ele>687</ele>
						<time>2022-06-15T11:01:53Z</time>
					</trkpt>
					<trkpt lat="45.595710" lon="4.465660">
						<ele>683</ele>
						<time>2022-06-15T11:02:07Z</time>
					</trkpt>
					<trkpt lat="45.595740" lon="4.465490">
						<ele>680</ele>
						<time>2022-06-15T11:02:17Z</time>
					</trkpt>
					<trkpt lat="45.595630" lon="4.465440">
						<ele>679</ele>
						<time>2022-06-15T11:02:26Z</time>
					</trkpt>
					</trkseg>
				</trk>
			</gpx>